createdAt,value
2022-10-14T00:03:56.262Z,16.40
2022-10-14T00:09:02.166Z,16.40
2022-10-14T00:14:09.370Z,16.40
2022-10-14T00:19:12.727Z,16.40
2022-10-14T00:24:17.232Z,16.40
2022-10-14T00:29:21.807Z,16.40
2022-10-14T00:34:24.957Z,16.40
2022-10-14T00:39:29.197Z,16.40
2022-10-14T00:45:01.123Z,16.40
2022-10-14T00:50:04.936Z,16.40
2022-10-14T00:55:13.570Z,16.40
2022-10-14T01:00:20.460Z,16.40
2022-10-14T01:05:24.172Z,16.40
2022-10-14T01:10:34.269Z,16.40
2022-10-14T01:15:47.881Z,16.40
2022-10-14T01:21:10.738Z,16.30
2022-10-14T01:26:35.410Z,16.30
2022-10-14T01:31:45.569Z,16.30
2022-10-14T01:36:53.242Z,16.30
2022-10-14T01:42:00.926Z,16.40
2022-10-14T01:47:07.614Z,16.40
2022-10-14T01:52:20.017Z,16.40
2022-10-14T01:57:27.346Z,16.40
2022-10-14T02:02:31.798Z,16.40
2022-10-14T02:07:40.172Z,16.40
2022-10-14T02:12:53.937Z,16.40
2022-10-14T02:18:04.700Z,16.40
2022-10-14T02:23:12.146Z,16.40
2022-10-14T02:28:19.698Z,16.40
2022-10-14T02:33:29.513Z,16.40
2022-10-14T02:38:34.693Z,16.40
2022-10-14T02:43:37.788Z,16.40
2022-10-14T02:48:42.293Z,16.40
2022-10-14T02:53:45.413Z,16.40
2022-10-14T02:58:48.559Z,16.30
2022-10-14T03:03:52.980Z,16.30
2022-10-14T03:08:56.065Z,16.30
2022-10-14T03:13:59.132Z,16.30
2022-10-14T03:19:03.645Z,16.30
2022-10-14T03:24:07.315Z,16.30
2022-10-14T03:29:10.394Z,16.30
2022-10-14T03:34:14.816Z,16.20
2022-10-14T03:39:17.873Z,16.20
2022-10-14T03:44:20.941Z,16.20
2022-10-14T03:49:25.572Z,16.20
2022-10-14T03:54:28.629Z,16.20
2022-10-14T03:59:31.843Z,16.20
2022-10-14T04:04:36.280Z,16.20
2022-10-14T04:09:39.340Z,16.10
2022-10-14T04:14:42.413Z,16.10
2022-10-14T04:19:46.917Z,16.10
2022-10-14T04:24:50.073Z,16.10
2022-10-14T04:29:53.880Z,16.10
2022-10-14T04:34:58.379Z,16.10
2022-10-14T04:40:01.432Z,16.10
2022-10-14T04:45:04.952Z,16.10
2022-10-14T04:50:10.433Z,16.10
2022-10-14T04:55:13.796Z,16.10
2022-10-14T05:00:17.437Z,16.10
2022-10-14T05:05:21.857Z,16.10
2022-10-14T05:10:24.983Z,16.10
2022-10-14T05:15:28.156Z,16.00
2022-10-14T05:20:32.637Z,16.00
2022-10-14T05:25:35.725Z,16.00
2022-10-14T05:30:38.832Z,16.00
2022-10-14T05:35:59.771Z,16.10
2022-10-14T05:41:03.219Z,16.10
2022-10-14T05:46:06.591Z,16.20
2022-10-14T05:51:11.152Z,16.20
2022-10-14T05:56:14.516Z,16.20
2022-10-14T06:01:17.783Z,16.10
2022-10-14T06:06:28.053Z,16.10
2022-10-14T06:11:32.051Z,16.10
2022-10-14T06:16:35.362Z,16.10
2022-10-14T06:21:39.795Z,16.10
2022-10-14T06:26:42.920Z,16.10
2022-10-14T06:31:46.088Z,16.10
2022-10-14T06:36:50.544Z,16.10
2022-10-14T06:41:53.741Z,16.10
2022-10-14T06:46:56.831Z,16.20
2022-10-14T06:52:01.242Z,16.20
2022-10-14T06:57:04.368Z,16.20
2022-10-14T07:02:07.773Z,16.20
2022-10-14T07:07:12.277Z,16.20
2022-10-14T07:12:15.484Z,16.30
2022-10-14T07:17:18.894Z,16.30
2022-10-14T07:22:23.924Z,16.30
2022-10-14T07:27:27.243Z,16.40
2022-10-14T07:32:30.309Z,16.40
2022-10-14T07:37:34.723Z,16.50
2022-10-14T07:42:37.814Z,16.50
2022-10-14T07:47:40.893Z,16.60
2022-10-14T07:52:45.444Z,16.70
2022-10-14T07:57:48.486Z,16.70
2022-10-14T08:02:51.545Z,16.80
2022-10-14T08:07:55.995Z,16.90
2022-10-14T08:12:59.790Z,17.00
2022-10-14T08:18:02.847Z,17.00
2022-10-14T08:23:07.292Z,17.10
2022-10-14T08:28:10.880Z,17.10
2022-10-14T08:33:14.283Z,17.10
2022-10-14T08:38:19.170Z,17.20
2022-10-14T08:43:27.108Z,17.20
2022-10-14T08:48:31.000Z,17.30
2022-10-14T08:53:39.653Z,17.40
2022-10-14T08:58:44.938Z,17.50
2022-10-14T09:03:48.028Z,17.70
2022-10-14T09:08:56.812Z,17.90
2022-10-14T09:14:02.223Z,18.10
2022-10-14T09:19:13.211Z,18.30
2022-10-14T09:24:21.833Z,18.40
2022-10-14T09:29:28.700Z,18.50
2022-10-14T09:34:35.289Z,18.70
2022-10-14T09:39:41.208Z,18.90
2022-10-14T09:44:44.370Z,19.10
2022-10-14T09:49:48.957Z,19.30
2022-10-14T09:54:59.713Z,19.50
2022-10-14T10:00:06.513Z,19.70
2022-10-14T10:05:14.460Z,19.90
2022-10-14T10:10:23.249Z,20.10
2022-10-14T10:15:26.657Z,20.30
2022-10-14T10:20:33.594Z,20.30
2022-10-14T10:25:38.257Z,20.50
2022-10-14T10:30:49.630Z,20.50
2022-10-14T10:36:21.729Z,20.50
2022-10-14T10:41:43.477Z,20.60
2022-10-14T10:47:00.944Z,20.60
2022-10-14T10:52:16.105Z,20.70
2022-10-14T10:57:39.691Z,20.80
2022-10-14T11:02:56.906Z,20.90
2022-10-14T11:08:21.322Z,20.90
2022-10-14T11:13:34.876Z,21.10
2022-10-14T11:18:47.657Z,21.20
2022-10-14T11:24:02.113Z,21.30
2022-10-14T11:29:18.742Z,21.30
2022-10-14T11:34:37.953Z,21.40
2022-10-14T11:39:46.808Z,21.50
2022-10-14T11:45:03.112Z,21.50
2022-10-14T11:50:16.312Z,21.50
2022-10-14T11:55:23.550Z,21.50
2022-10-14T12:00:48.467Z,21.50
2022-10-14T12:06:34.754Z,21.50
2022-10-14T12:11:43.845Z,21.50
2022-10-14T12:16:50.308Z,21.40
2022-10-14T12:21:58.622Z,21.30
2022-10-14T12:27:04.758Z,21.30
2022-10-14T12:32:21.431Z,21.30
2022-10-14T12:37:54.234Z,21.30
2022-10-14T12:43:14.197Z,21.30
2022-10-14T12:48:22.256Z,21.30
2022-10-14T12:53:28.362Z,21.30
2022-10-14T12:58:34.720Z,21.30
2022-10-14T13:03:45.321Z,21.20
2022-10-14T13:09:19.205Z,21.20
2022-10-14T13:14:25.933Z,21.20
2022-10-14T13:19:49.089Z,21.10
2022-10-14T13:24:53.129Z,21.10
2022-10-14T13:30:05.947Z,21.20
2022-10-14T13:35:18.781Z,21.20
2022-10-14T13:40:26.306Z,21.20
2022-10-14T13:45:36.015Z,21.30
2022-10-14T13:50:45.017Z,21.30
2022-10-14T13:55:54.238Z,21.30
2022-10-14T14:01:03.693Z,21.30
2022-10-14T14:06:14.398Z,21.30
2022-10-14T14:11:22.676Z,21.30
2022-10-14T14:16:29.899Z,21.30
2022-10-14T14:21:34.361Z,21.30
2022-10-14T14:26:39.177Z,21.30
2022-10-14T14:42:35.949Z,21.20
2022-10-14T14:47:39.688Z,21.20
2022-10-14T14:52:45.241Z,21.20
2022-10-14T14:57:57.648Z,21.10
2022-10-14T15:03:03.252Z,21.10
2022-10-14T15:08:20.051Z,20.90
2022-10-14T15:13:28.863Z,20.70
2022-10-14T15:18:32.267Z,20.50
2022-10-14T15:23:42.321Z,20.40
2022-10-14T15:28:45.432Z,20.30
2022-10-14T15:33:50.481Z,20.20
2022-10-14T15:38:59.141Z,20.10
2022-10-14T15:44:02.345Z,19.90
2022-10-14T15:49:14.114Z,19.80
2022-10-14T15:54:18.573Z,19.70
2022-10-14T15:59:21.917Z,19.60
2022-10-14T16:04:27.985Z,19.50
2022-10-14T16:09:32.532Z,19.50
2022-10-14T16:14:35.667Z,19.50
2022-10-14T16:19:38.824Z,19.40
2022-10-14T16:24:43.268Z,19.30
2022-10-14T16:29:46.349Z,19.30
2022-10-14T16:34:49.398Z,19.20
2022-10-14T16:39:53.835Z,19.20
2022-10-14T16:44:57.449Z,19.20
2022-10-14T16:50:00.685Z,19.20
2022-10-14T16:55:05.766Z,19.20
2022-10-14T17:00:10.112Z,19.10
2022-10-14T17:05:13.900Z,19.10
2022-10-14T17:10:19.119Z,19.10
2022-10-14T17:15:22.557Z,19.00
2022-10-14T17:20:26.704Z,19.00
2022-10-14T17:25:31.124Z,19.00
2022-10-14T17:30:34.173Z,18.90
2022-10-14T17:35:37.328Z,18.80
2022-10-14T17:40:41.744Z,18.80
2022-10-14T17:45:44.857Z,18.80
2022-10-14T17:50:48.853Z,18.70
2022-10-14T17:55:56.822Z,18.70
2022-10-14T18:01:07.441Z,18.70
2022-10-14T18:06:13.383Z,18.80
2022-10-14T18:11:18.340Z,18.80
2022-10-14T18:16:21.458Z,18.70
2022-10-14T18:21:24.676Z,18.70
2022-10-14T18:26:29.400Z,18.70
2022-10-14T18:31:33.385Z,18.70
2022-10-14T18:36:36.523Z,18.70
2022-10-14T18:41:41.865Z,18.70
2022-10-14T18:46:46.094Z,18.70
2022-10-14T18:51:49.174Z,18.70
2022-10-14T18:56:54.974Z,18.70
2022-10-14T19:01:58.145Z,18.60
2022-10-14T19:07:01.270Z,18.60
2022-10-14T19:12:26.301Z,18.50
2022-10-14T19:17:29.426Z,18.50
2022-10-14T19:22:32.556Z,18.50
2022-10-14T19:27:37.320Z,18.40
2022-10-14T19:32:40.993Z,18.50
2022-10-14T19:37:44.092Z,18.40
2022-10-14T19:42:48.568Z,18.40
2022-10-14T19:47:51.655Z,18.40
2022-10-14T19:52:54.712Z,18.40
2022-10-14T19:57:59.134Z,18.40
2022-10-14T20:03:02.272Z,18.40
2022-10-14T20:08:05.434Z,18.30
2022-10-14T20:13:10.002Z,18.30
2022-10-14T20:18:13.120Z,18.30
2022-10-14T20:23:16.279Z,18.20
2022-10-14T20:28:20.793Z,18.20
2022-10-14T20:33:24.296Z,18.20
2022-10-14T20:38:27.545Z,18.20
2022-10-14T20:43:32.141Z,18.10
2022-10-14T20:48:37.347Z,18.20
2022-10-14T20:58:55.408Z,18.10
2022-10-14T21:04:02.032Z,18.10
2022-10-14T21:09:05.416Z,18.10
2022-10-14T21:14:10.011Z,18.20
2022-10-14T21:19:13.304Z,18.20
2022-10-14T21:24:17.529Z,18.10
2022-10-14T21:29:23.041Z,18.20
2022-10-14T21:34:26.119Z,18.20
2022-10-14T21:39:29.533Z,18.20
2022-10-14T21:44:34.013Z,18.20
2022-10-14T21:49:37.138Z,18.30
2022-10-14T21:54:40.178Z,18.30
2022-10-14T21:59:45.024Z,18.40
2022-10-14T22:04:48.076Z,18.40
2022-10-14T22:09:51.176Z,18.40
2022-10-14T22:14:55.780Z,18.40
2022-10-14T22:19:59.237Z,18.40
2022-10-14T22:25:02.420Z,18.40
2022-10-14T22:30:08.368Z,18.30
2022-10-14T22:35:11.534Z,18.30
2022-10-14T22:40:14.804Z,18.30
2022-10-14T22:45:19.640Z,18.30
2022-10-14T22:50:22.946Z,18.20
2022-10-14T22:55:26.087Z,18.20
2022-10-14T23:00:30.651Z,18.20
2022-10-14T23:05:33.902Z,18.10
2022-10-14T23:10:38.307Z,18.20
2022-10-14T23:15:42.839Z,18.00
2022-10-14T23:20:45.975Z,18.00
2022-10-14T23:25:49.114Z,17.90
2022-10-14T23:30:53.719Z,17.90
2022-10-14T23:35:56.894Z,17.90
2022-10-14T23:41:02.637Z,17.90
2022-10-14T23:46:08.672Z,17.80
2022-10-14T23:51:12.286Z,17.70
2022-10-14T23:56:15.514Z,17.60
